Charles Darwin — GDLS — position and weather

sailwx.info

Track history (hours):
 
Tides and Currents Weather Stations Pressure Air Temp Water Temp Dewpoint Dewpoint Depression Visibility Wind Speed Wind Dir Waves Ship Positions

Oceanographic research ship Charles Darwin (UK)

Detailed information on ship capabilities available from University of Delaware's Ocean Information Center.

Last reported at 2017-Aug-18 10:30 UTC. Time now 2017-Aug-24 06:59 UTC.
Position N 41°07' W 070°43'.

Length 70 m; draft 5.5 m.

Type: Cargo ship. MMSI: 235011460.

Date/timePositionNaut miles runAvg speedWind from/ knotsBaromVisibWave heightAir tempDewpointWater temp
2017-Aug-18 10:30N 41°07' W 070°43'1 2.9
2017-Aug-18 10:01N 41°05' W 070°45'2 3.4
2017-Aug-18 09:30N 41°04' W 070°46'2 3.6
2017-Aug-18 09:00N 41°03' W 070°48'4 2.9
2017-Aug-18 07:29N 41°06' W 070°44'1 0.5
2017-Aug-18 05:33N 41°07' W 070°43'1 3.7
2017-Aug-18 05:19N 41°06' W 070°44'2 1.2
2017-Aug-18 04:07N 41°05' W 070°45'0 3.5
2017-Aug-18 03:59N 41°05' W 070°45'  
2017-Aug-15 09:49N 41°08' W 070°43'1 3.1
2017-Aug-15 09:30N 41°07' W 070°44'2 3.8
2017-Aug-15 09:00N 41°05' W 070°46'2 3.4
2017-Aug-15 08:30N 41°04' W 070°47'2 3.1
2017-Aug-15 08:01N 41°03' W 070°49'0 0.6
2017-Aug-15 07:24N 41°03' W 070°49'2 3.7
2017-Aug-15 06:45N 41°05' W 070°47'3 3.4
2017-Aug-15 05:51N 41°07' W 070°44'1 3.1
2017-Aug-15 05:30N 41°06' W 070°45'2 3.1
2017-Aug-15 05:00N 41°05' W 070°46'1 1.7
2017-Aug-15 04:30N 41°04' W 070°47'1 2.5
2017-Aug-15 04:01N 41°05' W 070°46'1 1.7
2017-Aug-15 03:30N 41°06' W 070°46'0 1.0
2017-Aug-15 03:01N 41°06' W 070°46'1 1.4
2017-Aug-15 02:29N 41°05' W 070°46'2 3.5
2017-Aug-15 02:01N 41°06' W 070°45'0 0.6
2017-Aug-15 01:31N 41°06' W 070°45'2 3.5
2017-Aug-15 01:00N 41°05' W 070°47'2 3.4
2017-Aug-15 00:31N 41°04' W 070°48'2 3.6
2017-Aug-14 23:54N 41°02' W 070°50'7 3.3
2017-Aug-14 21:56N 41°07' W 070°44'2 3.5
2017-Aug-14 21:24N 41°05' W 070°46'  
2017-Aug-12 06:15N 41°02' W 070°47'1 3.6
2017-Aug-12 06:00N 41°02' W 070°48'2 3.5
2017-Aug-12 05:30N 41°00' W 070°50'9 3.1
2017-Aug-12 02:31N 41°07' W 070°42'0 2.8
2017-Aug-12 02:30N 41°07' W 070°42'2 3.2
2017-Aug-12 01:53N 41°06' W 070°43'1 0.1
2017-Aug-11 13:49N 41°06' W 070°42'2 3.5
2017-Aug-11 13:15N 41°05' W 070°44'3 3.4
2017-Aug-11 12:28N 41°03' W 070°46'2 1.7
2017-Aug-11 11:33N 41°04' W 070°45'0 0.4
2017-Aug-11 11:23N 41°04' W 070°45'1 2.5
2017-Aug-11 11:00N 41°04' W 070°46'0 0.4
2017-Aug-11 10:12N 41°04' W 070°45'1 3.4
2017-Aug-11 10:00N 41°03' W 070°46'2 3.4
2017-Aug-11 09:28N 41°02' W 070°48'2 3.4
2017-Aug-11 08:59N 41°01' W 070°49'1 0.2
2017-Aug-11 03:58N 41°01' W 070°50'2 3.3
2017-Aug-11 03:24N 41°00' W 070°48'3 3.5
2017-Aug-11 02:33N 40°58' W 070°45'0 2.9
2017-Aug-11 02:31N 40°58' W 070°45'2 3.4
2017-Aug-11 01:57N 40°57' W 070°43'2 3.5
2017-Aug-11 01:31N 40°56' W 070°42'2 2.5
2017-Aug-11 00:51N 40°57' W 070°43'0 0.6
2017-Aug-11 00:24N 40°57' W 070°43'1 1.4
2017-Aug-11 00:00N 40°56' W 070°43'2 0.2
2017-Aug-10 13:11N 40°58' W 070°43'1 3.5
2017-Aug-10 12:56N 40°59' W 070°44'1 0.3
2017-Aug-10 09:11N 40°60' W 070°44'1 3.6
2017-Aug-10 08:47N 40°59' W 070°42'1 3.6
2017-Aug-10 08:28N 40°58' W 070°41'7 3.2
2017-Aug-10 06:24N 41°02' W 070°48'2 3.5
2017-Aug-10 05:54N 41°03' W 070°50'8 2.9
2017-Aug-10 03:06N 40°59' W 070°41'5 0.4
2017-Aug-09 13:39N 41°03' W 070°45'1 3.6
2017-Aug-09 13:31N 41°03' W 070°46'4 0.6
2017-Aug-09 07:56N 41°01' W 070°42'  
Track history (hours):
 
Tides and Currents Weather Stations Pressure Air Temp Water Temp Dewpoint Dewpoint Depression Visibility Wind Speed Wind Dir Waves Ship Positions

Oceanographic research ship Charles Darwin (UK)

Detailed information on ship capabilities available from University of Delaware's Ocean Information Center.

Last reported at 2017-Aug-18 10:30 UTC. Time now 2017-Aug-24 06:59 UTC.
Position N 41°07' W 070°43'.

Length 70 m; draft 5.5 m.

Type: Cargo ship. MMSI: 235011460.

Date/timePositionNaut miles runAvg speedWind from/ knotsBaromVisibWave heightAir tempDewpointWater temp
2017-Aug-18 10:30N 41°07' W 070°43'1 2.9
2017-Aug-18 10:01N 41°05' W 070°45'2 3.4
2017-Aug-18 09:30N 41°04' W 070°46'2 3.6
2017-Aug-18 09:00N 41°03' W 070°48'4 2.9
2017-Aug-18 07:29N 41°06' W 070°44'1 0.5
2017-Aug-18 05:33N 41°07' W 070°43'1 3.7
2017-Aug-18 05:19N 41°06' W 070°44'2 1.2
2017-Aug-18 04:07N 41°05' W 070°45'0 3.5
2017-Aug-18 03:59N 41°05' W 070°45'  
2017-Aug-15 09:49N 41°08' W 070°43'1 3.1
2017-Aug-15 09:30N 41°07' W 070°44'2 3.8
2017-Aug-15 09:00N 41°05' W 070°46'2 3.4
2017-Aug-15 08:30N 41°04' W 070°47'2 3.1
2017-Aug-15 08:01N 41°03' W 070°49'0 0.6
2017-Aug-15 07:24N 41°03' W 070°49'2 3.7
2017-Aug-15 06:45N 41°05' W 070°47'3 3.4
2017-Aug-15 05:51N 41°07' W 070°44'1 3.1
2017-Aug-15 05:30N 41°06' W 070°45'2 3.1
2017-Aug-15 05:00N 41°05' W 070°46'1 1.7
2017-Aug-15 04:30N 41°04' W 070°47'1 2.5
2017-Aug-15 04:01N 41°05' W 070°46'1 1.7
2017-Aug-15 03:30N 41°06' W 070°46'0 1.0
2017-Aug-15 03:01N 41°06' W 070°46'1 1.4
2017-Aug-15 02:29N 41°05' W 070°46'2 3.5
2017-Aug-15 02:01N 41°06' W 070°45'0 0.6
2017-Aug-15 01:31N 41°06' W 070°45'2 3.5
2017-Aug-15 01:00N 41°05' W 070°47'2 3.4
2017-Aug-15 00:31N 41°04' W 070°48'2 3.6
2017-Aug-14 23:54N 41°02' W 070°50'7 3.3
2017-Aug-14 21:56N 41°07' W 070°44'2 3.5
2017-Aug-14 21:24N 41°05' W 070°46'  
2017-Aug-12 06:15N 41°02' W 070°47'1 3.6
2017-Aug-12 06:00N 41°02' W 070°48'2 3.5
2017-Aug-12 05:30N 41°00' W 070°50'9 3.1
2017-Aug-12 02:31N 41°07' W 070°42'0 2.8
2017-Aug-12 02:30N 41°07' W 070°42'2 3.2
2017-Aug-12 01:53N 41°06' W 070°43'1 0.1
2017-Aug-11 13:49N 41°06' W 070°42'2 3.5
2017-Aug-11 13:15N 41°05' W 070°44'3 3.4
2017-Aug-11 12:28N 41°03' W 070°46'2 1.7
2017-Aug-11 11:33N 41°04' W 070°45'0 0.4
2017-Aug-11 11:23N 41°04' W 070°45'1 2.5
2017-Aug-11 11:00N 41°04' W 070°46'0 0.4
2017-Aug-11 10:12N 41°04' W 070°45'1 3.4
2017-Aug-11 10:00N 41°03' W 070°46'2 3.4
2017-Aug-11 09:28N 41°02' W 070°48'2 3.4
2017-Aug-11 08:59N 41°01' W 070°49'1 0.2
2017-Aug-11 03:58N 41°01' W 070°50'2 3.3
2017-Aug-11 03:24N 41°00' W 070°48'3 3.5
2017-Aug-11 02:33N 40°58' W 070°45'0 2.9
2017-Aug-11 02:31N 40°58' W 070°45'2 3.4
2017-Aug-11 01:57N 40°57' W 070°43'2 3.5
2017-Aug-11 01:31N 40°56' W 070°42'2 2.5
2017-Aug-11 00:51N 40°57' W 070°43'0 0.6
2017-Aug-11 00:24N 40°57' W 070°43'1 1.4
2017-Aug-11 00:00N 40°56' W 070°43'2 0.2
2017-Aug-10 13:11N 40°58' W 070°43'1 3.5
2017-Aug-10 12:56N 40°59' W 070°44'1 0.3
2017-Aug-10 09:11N 40°60' W 070°44'1 3.6
2017-Aug-10 08:47N 40°59' W 070°42'1 3.6
2017-Aug-10 08:28N 40°58' W 070°41'7 3.2
2017-Aug-10 06:24N 41°02' W 070°48'2 3.5
2017-Aug-10 05:54N 41°03' W 070°50'8 2.9
2017-Aug-10 03:06N 40°59' W 070°41'5 0.4
2017-Aug-09 13:39N 41°03' W 070°45'1 3.6
2017-Aug-09 13:31N 41°03' W 070°46'4 0.6
2017-Aug-09 07:56N 41°01' W 070°42'  

Dump ship's entire track history